sensor_id;sensor_type;location;lat;lon;timestamp;pressure;altitude;pressure_sealevel;temperature;humidity
9235;BME280;4652;42.716;23.218;2023-07-24T00:06:51;95029.16;;;17.66;nan
9235;BME280;4652;42.716;23.218;2023-07-24T00:13:34;95040.56;;;17.59;nan
9235;BME280;4652;42.716;23.218;2023-07-24T00:20:16;95041.81;;;17.62;nan
9235;BME280;4652;42.716;23.218;2023-07-24T00:26:58;95032.28;;;17.56;nan
9235;BME280;4652;42.716;23.218;2023-07-24T00:33:42;95030.66;;;17.55;nan
9235;BME280;4652;42.716;23.218;2023-07-24T00:40:24;95025.03;;;17.51;nan
9235;BME280;4652;42.716;23.218;2023-07-24T00:47:06;95020.13;;;17.45;nan
9235;BME280;4652;42.716;23.218;2023-07-24T00:53:49;95030.53;;;17.34;nan
9235;BME280;4652;42.716;23.218;2023-07-24T01:08:01;95022.38;;;16.79;100.00
9235;BME280;4652;42.716;23.218;2023-07-24T01:14:46;95002.19;;;16.97;100.00
9235;BME280;4652;42.716;23.218;2023-07-24T01:21:44;94982.81;;;16.99;100.00
9235;BME280;4652;42.716;23.218;2023-07-24T01:28:28;94983.09;;;17.15;100.00
9235;BME280;4652;42.716;23.218;2023-07-24T01:35:10;94997.22;;;16.99;100.00
9235;BME280;4652;42.716;23.218;2023-07-24T01:41:53;94976.13;;;16.79;100.00
9235;BME280;4652;42.716;23.218;2023-07-24T01:48:36;95014.72;;;16.81;100.00
9235;BME280;4652;42.716;23.218;2023-07-24T01:55:18;95019.16;;;16.86;100.00
9235;BME280;4652;42.716;23.218;2023-07-24T02:02:00;95004.47;;;16.78;100.00
9235;BME280;4652;42.716;23.218;2023-07-24T02:08:44;95015.03;;;16.80;100.00
9235;BME280;4652;42.716;23.218;2023-07-24T02:15:29;95011.28;;;17.01;100.00
9235;BME280;4652;42.716;23.218;2023-07-24T02:22:11;95014.34;;;17.00;100.00
9235;BME280;4652;42.716;23.218;2023-07-24T02:28:55;95017.72;;;16.88;100.00
9235;BME280;4652;42.716;23.218;2023-07-24T02:35:40;94989.00;;;16.53;100.00
9235;BME280;4652;42.716;23.218;2023-07-24T02:42:22;95014.53;;;16.86;100.00
9235;BME280;4652;42.716;23.218;2023-07-24T02:49:06;95006.19;;;16.91;100.00
9235;BME280;4652;42.716;23.218;2023-07-24T02:55:49;95007.59;;;17.06;100.00
9235;BME280;4652;42.716;23.218;2023-07-24T03:02:30;95007.72;;;17.10;100.00
9235;BME280;4652;42.716;23.218;2023-07-24T03:09:14;95006.44;;;17.16;100.00
9235;BME280;4652;42.716;23.218;2023-07-24T03:15:57;94983.31;;;16.92;100.00
9235;BME280;4652;42.716;23.218;2023-07-24T03:22:40;94992.13;;;16.89;100.00
9235;BME280;4652;42.716;23.218;2023-07-24T03:29:24;95012.44;;;16.92;100.00
9235;BME280;4652;42.716;23.218;2023-07-24T03:36:06;95018.38;;;16.85;100.00
9235;BME280;4652;42.716;23.218;2023-07-24T03:42:48;95025.53;;;16.98;100.00
9235;BME280;4652;42.716;23.218;2023-07-24T03:49:31;95016.06;;;17.04;100.00
9235;BME280;4652;42.716;23.218;2023-07-24T03:56:13;94992.75;;;16.95;100.00
9235;BME280;4652;42.716;23.218;2023-07-24T04:02:55;95022.59;;;17.21;100.00
9235;BME280;4652;42.716;23.218;2023-07-24T04:09:39;94966.16;;;17.00;100.00
9235;BME280;4652;42.716;23.218;2023-07-24T04:16:21;95032.09;;;17.52;100.00
9235;BME280;4652;42.716;23.218;2023-07-24T04:23:03;95037.72;;;17.47;100.00
9235;BME280;4652;42.716;23.218;2023-07-24T04:29:46;95030.59;;;17.93;100.00
9235;BME280;4652;42.716;23.218;2023-07-24T04:36:28;95028.50;;;18.40;100.00
9235;BME280;4652;42.716;23.218;2023-07-24T04:43:10;95038.00;;;18.96;100.00
9235;BME280;4652;42.716;23.218;2023-07-24T04:49:54;95016.75;;;19.46;100.00
9235;BME280;4652;42.716;23.218;2023-07-24T04:56:36;95021.00;;;19.80;100.00
9235;BME280;4652;42.716;23.218;2023-07-24T05:03:18;95024.03;;;20.03;100.00
9235;BME280;4652;42.716;23.218;2023-07-24T05:10:01;95025.84;;;20.11;100.00
9235;BME280;4652;42.716;23.218;2023-07-24T05:16:43;94984.56;;;20.68;100.00
9235;BME280;4652;42.716;23.218;2023-07-24T05:23:25;95021.75;;;21.40;100.00
9235;BME280;4652;42.716;23.218;2023-07-24T05:30:09;95012.94;;;21.62;100.00
9235;BME280;4652;42.716;23.218;2023-07-24T05:36:51;95012.31;;;22.00;100.00
9235;BME280;4652;42.716;23.218;2023-07-24T05:43:33;94994.59;;;22.32;100.00
9235;BME280;4652;42.716;23.218;2023-07-24T05:50:17;94993.88;;;22.35;100.00
9235;BME280;4652;42.716;23.218;2023-07-24T05:56:59;94998.78;;;22.80;100.00
9235;BME280;4652;42.716;23.218;2023-07-24T06:03:41;94995.09;;;22.92;100.00
9235;BME280;4652;42.716;23.218;2023-07-24T06:10:24;94990.13;;;23.39;100.00
9235;BME280;4652;42.716;23.218;2023-07-24T06:17:06;94993.63;;;24.34;87.77
9235;BME280;4652;42.716;23.218;2023-07-24T06:23:48;94986.25;;;25.38;78.23
9235;BME280;4652;42.716;23.218;2023-07-24T06:30:32;94985.34;;;26.76;67.10
9235;BME280;4652;42.716;23.218;2023-07-24T06:37:14;94984.44;;;29.54;58.27
9235;BME280;4652;42.716;23.218;2023-07-24T06:43:56;94968.16;;;34.04;47.09
9235;BME280;4652;42.716;23.218;2023-07-24T06:50:39;94962.03;;;37.13;42.32
9235;BME280;4652;42.716;23.218;2023-07-24T06:57:21;94968.53;;;36.41;41.82
9235;BME280;4652;42.716;23.218;2023-07-24T07:45:09;94938.94;;;31.35;48.61
9235;BME280;4652;42.716;23.218;2023-07-24T07:51:51;94941.16;;;30.87;50.96
9235;BME280;4652;42.716;23.218;2023-07-24T07:58:33;94953.59;;;30.41;51.47
9235;BME280;4652;42.716;23.218;2023-07-24T08:05:17;94957.94;;;29.98;52.88
9235;BME280;4652;42.716;23.218;2023-07-24T08:11:59;94948.44;;;29.95;52.96
9235;BME280;4652;42.716;23.218;2023-07-24T08:18:41;94930.25;;;29.87;52.12
9235;BME280;4652;42.716;23.218;2023-07-24T08:25:25;94918.28;;;29.39;54.00
9235;BME280;4652;42.716;23.218;2023-07-24T08:32:07;94923.44;;;29.95;54.09
9235;BME280;4652;42.716;23.218;2023-07-24T08:38:50;94919.53;;;30.30;52.88
9235;BME280;4652;42.716;23.218;2023-07-24T08:45:33;94915.50;;;31.06;50.58
9235;BME280;4652;42.716;23.218;2023-07-24T08:52:16;94914.69;;;31.62;51.64
9235;BME280;4652;42.716;23.218;2023-07-24T08:58:58;94912.66;;;31.66;49.21
9235;BME280;4652;42.716;23.218;2023-07-24T09:05:41;94900.41;;;32.10;48.27
9235;BME280;4652;42.716;23.218;2023-07-24T09:12:24;94854.53;;;31.41;49.33
9235;BME280;4652;42.716;23.218;2023-07-24T09:19:16;94845.19;;;31.55;47.99
9235;BME280;4652;42.716;23.218;2023-07-24T09:26:05;94880.88;;;32.53;47.15
9235;BME280;4652;42.716;23.218;2023-07-24T09:32:51;94864.56;;;32.91;49.00
9235;BME280;4652;42.716;23.218;2023-07-24T09:39:33;94859.00;;;33.27;46.24
9235;BME280;4652;42.716;23.218;2023-07-24T09:46:17;94835.28;;;33.51;46.45
9235;BME280;4652;42.716;23.218;2023-07-24T09:52:59;94849.53;;;33.73;45.02
9235;BME280;4652;42.716;23.218;2023-07-24T09:59:42;94833.22;;;33.03;44.99
9235;BME280;4652;42.716;23.218;2023-07-24T10:06:26;94820.44;;;33.54;45.07
9235;BME280;4652;42.716;23.218;2023-07-24T10:13:10;94812.25;;;33.79;45.43
9235;BME280;4652;42.716;23.218;2023-07-24T10:20:02;94809.50;;;34.24;46.52
9235;BME280;4652;42.716;23.218;2023-07-24T10:26:46;94793.16;;;34.06;45.09
9235;BME280;4652;42.716;23.218;2023-07-24T10:33:30;94797.25;;;33.41;45.12
9235;BME280;4652;42.716;23.218;2023-07-24T10:40:19;94795.47;;;33.15;46.72
9235;BME280;4652;42.716;23.218;2023-07-24T10:47:03;94771.84;;;33.51;46.56
9235;BME280;4652;42.716;23.218;2023-07-24T10:53:46;94782.59;;;34.55;45.25
9235;BME280;4652;42.716;23.218;2023-07-24T11:00:29;94784.69;;;35.05;43.49
9235;BME280;4652;42.716;23.218;2023-07-24T11:07:12;94776.31;;;34.10;44.12
9235;BME280;4652;42.716;23.218;2023-07-24T11:13:54;94696.53;;;32.12;45.77
9235;BME280;4652;42.716;23.218;2023-07-24T11:20:38;94750.06;;;32.23;49.36
9235;BME280;4652;42.716;23.218;2023-07-24T11:27:21;94750.94;;;32.91;45.54
9235;BME280;4652;42.716;23.218;2023-07-24T11:34:03;94728.59;;;32.39;47.65
9235;BME280;4652;42.716;23.218;2023-07-24T11:40:46;94733.84;;;32.89;45.46
9235;BME280;4652;42.716;23.218;2023-07-24T11:47:30;94725.63;;;32.66;47.58
9235;BME280;4652;42.716;23.218;2023-07-24T11:54:12;94697.59;;;32.53;48.42
9235;BME280;4652;42.716;23.218;2023-07-24T12:00:55;94718.63;;;33.10;49.39
9235;BME280;4652;42.716;23.218;2023-07-24T12:07:38;94712.25;;;33.58;47.93
9235;BME280;4652;42.716;23.218;2023-07-24T12:14:20;94692.59;;;34.03;44.77
9235;BME280;4652;42.716;23.218;2023-07-24T12:21:02;94706.38;;;34.39;43.41
9235;BME280;4652;42.716;23.218;2023-07-24T12:27:46;94681.41;;;33.90;43.93
9235;BME280;4652;42.716;23.218;2023-07-24T12:34:28;94695.69;;;34.08;43.26
9235;BME280;4652;42.716;23.218;2023-07-24T12:41:10;94685.44;;;34.31;45.55
9235;BME280;4652;42.716;23.218;2023-07-24T12:47:53;94671.34;;;34.34;44.02
9235;BME280;4652;42.716;23.218;2023-07-24T12:54:36;94663.06;;;34.31;44.22
9235;BME280;4652;42.716;23.218;2023-07-24T13:08:01;94647.00;;;34.06;38.35
9235;BME280;4652;42.716;23.218;2023-07-24T13:14:43;94653.88;;;34.17;37.36
9235;BME280;4652;42.716;23.218;2023-07-24T13:21:24;94623.50;;;34.03;40.04
9235;BME280;4652;42.716;23.218;2023-07-24T13:28:08;94648.66;;;34.32;39.28
9235;BME280;4652;42.716;23.218;2023-07-24T13:34:50;94654.13;;;34.36;37.77
9235;BME280;4652;42.716;23.218;2023-07-24T13:41:32;94637.50;;;34.03;38.82
9235;BME280;4652;42.716;23.218;2023-07-24T13:48:18;94628.94;;;33.53;36.09
9235;BME280;4652;42.716;23.218;2023-07-24T13:55:00;94637.84;;;33.48;38.01
9235;BME280;4652;42.716;23.218;2023-07-24T14:01:42;94634.38;;;33.44;36.89
9235;BME280;4652;42.716;23.218;2023-07-24T14:08:26;94631.22;;;33.42;38.33
9235;BME280;4652;42.716;23.218;2023-07-24T14:15:08;94614.34;;;33.33;36.33
9235;BME280;4652;42.716;23.218;2023-07-24T14:21:51;94633.69;;;33.40;37.96
9235;BME280;4652;42.716;23.218;2023-07-24T14:28:34;94628.66;;;33.35;36.98
9235;BME280;4652;42.716;23.218;2023-07-24T14:35:16;94623.25;;;33.28;37.89
9235;BME280;4652;42.716;23.218;2023-07-24T14:41:58;94634.94;;;33.23;37.50
9235;BME280;4652;42.716;23.218;2023-07-24T14:48:41;94624.84;;;33.13;38.36
9235;BME280;4652;42.716;23.218;2023-07-24T14:55:23;94617.94;;;33.01;37.42
9235;BME280;4652;42.716;23.218;2023-07-24T15:02:05;94603.41;;;32.77;38.62
9235;BME280;4652;42.716;23.218;2023-07-24T15:08:49;94610.66;;;32.75;40.07
9235;BME280;4652;42.716;23.218;2023-07-24T15:15:33;94606.47;;;32.67;36.67
9235;BME280;4652;42.716;23.218;2023-07-24T15:22:16;94586.16;;;32.66;38.19
9235;BME280;4652;42.716;23.218;2023-07-24T15:29:00;94590.25;;;32.62;39.42
9235;BME280;4652;42.716;23.218;2023-07-24T15:35:42;94589.56;;;32.58;39.27
9235;BME280;4652;42.716;23.218;2023-07-24T15:42:24;94594.84;;;32.52;39.07
9235;BME280;4652;42.716;23.218;2023-07-24T15:49:08;94581.03;;;32.29;39.66
9235;BME280;4652;42.716;23.218;2023-07-24T15:55:50;94594.38;;;32.21;40.68
9235;BME280;4652;42.716;23.218;2023-07-24T16:02:32;94584.16;;;32.15;39.91
9235;BME280;4652;42.716;23.218;2023-07-24T16:09:15;94592.00;;;32.04;39.62
9235;BME280;4652;42.716;23.218;2023-07-24T16:15:57;94584.50;;;31.81;40.26
9235;BME280;4652;42.716;23.218;2023-07-24T16:22:39;94573.41;;;31.61;41.78
9235;BME280;4652;42.716;23.218;2023-07-24T16:29:22;94575.31;;;31.45;42.14
9235;BME280;4652;42.716;23.218;2023-07-24T16:36:04;94602.13;;;31.35;42.28
9235;BME280;4652;42.716;23.218;2023-07-24T16:42:46;94598.97;;;31.13;45.07
9235;BME280;4652;42.716;23.218;2023-07-24T16:49:30;94595.75;;;30.92;46.15
9235;BME280;4652;42.716;23.218;2023-07-24T16:56:12;94575.38;;;30.52;46.76
9235;BME280;4652;42.716;23.218;2023-07-24T17:02:54;94583.38;;;30.23;48.25
9235;BME280;4652;42.716;23.218;2023-07-24T17:09:37;94585.75;;;29.98;48.85
9235;BME280;4652;42.716;23.218;2023-07-24T17:16:19;94589.31;;;29.68;49.32
9235;BME280;4652;42.716;23.218;2023-07-24T17:23:01;94593.69;;;29.35;51.10
9235;BME280;4652;42.716;23.218;2023-07-24T17:29:45;94596.69;;;28.70;55.37
9235;BME280;4652;42.716;23.218;2023-07-24T17:36:27;94584.44;;;28.19;58.79
9235;BME280;4652;42.716;23.218;2023-07-24T17:43:08;94582.41;;;27.61;62.90
9235;BME280;4652;42.716;23.218;2023-07-24T17:49:52;94588.16;;;26.98;69.36
9235;BME280;4652;42.716;23.218;2023-07-24T17:56:34;94575.97;;;26.46;73.00
9235;BME280;4652;42.716;23.218;2023-07-24T18:03:16;94560.16;;;25.79;73.98
9235;BME280;4652;42.716;23.218;2023-07-24T18:10:00;94556.00;;;25.17;72.03
9235;BME280;4652;42.716;23.218;2023-07-24T18:16:42;94594.41;;;24.81;75.91
9235;BME280;4652;42.716;23.218;2023-07-24T18:23:25;94594.53;;;24.41;72.47
9235;BME280;4652;42.716;23.218;2023-07-24T18:30:09;94601.38;;;24.14;73.44
9235;BME280;4652;42.716;23.218;2023-07-24T18:36:51;94587.34;;;23.89;74.05
9235;BME280;4652;42.716;23.218;2023-07-24T18:43:34;94608.84;;;23.76;72.82
9235;BME280;4652;42.716;23.218;2023-07-24T18:50:17;94605.22;;;23.65;72.49
9235;BME280;4652;42.716;23.218;2023-07-24T18:57:00;94602.66;;;23.46;73.33
9235;BME280;4652;42.716;23.218;2023-07-24T19:08:01;94576.06;;;23.24;74.65
9235;BME280;4652;42.716;23.218;2023-07-24T19:14:43;94588.00;;;23.05;79.85
9235;BME280;4652;42.716;23.218;2023-07-24T19:21:25;94600.00;;;22.94;79.29
9235;BME280;4652;42.716;23.218;2023-07-24T19:28:09;94600.75;;;22.91;81.04
9235;BME280;4652;42.716;23.218;2023-07-24T19:34:51;94583.25;;;22.72;83.05
9235;BME280;4652;42.716;23.218;2023-07-24T19:41:33;94606.03;;;22.76;81.94
9235;BME280;4652;42.716;23.218;2023-07-24T19:48:17;94599.28;;;22.70;75.96
9235;BME280;4652;42.716;23.218;2023-07-24T19:54:58;94598.06;;;22.64;78.40
9235;BME280;4652;42.716;23.218;2023-07-24T20:01:41;94591.41;;;22.43;82.02
9235;BME280;4652;42.716;23.218;2023-07-24T20:08:25;94599.69;;;22.46;80.30
9235;BME280;4652;42.716;23.218;2023-07-24T20:15:08;94581.72;;;22.00;83.34
9235;BME280;4652;42.716;23.218;2023-07-24T20:21:50;94592.19;;;22.17;91.34
9235;BME280;4652;42.716;23.218;2023-07-24T20:28:35;94595.78;;;22.21;92.88
9235;BME280;4652;42.716;23.218;2023-07-24T20:35:17;94608.91;;;22.08;92.13
9235;BME280;4652;42.716;23.218;2023-07-24T20:41:59;94594.78;;;22.06;91.29
9235;BME280;4652;42.716;23.218;2023-07-24T20:48:43;94584.56;;;22.07;90.84
9235;BME280;4652;42.716;23.218;2023-07-24T20:55:25;94561.41;;;22.04;91.81
9235;BME280;4652;42.716;23.218;2023-07-24T21:15:50;94570.97;;;20.88;100.00
9235;BME280;4652;42.716;23.218;2023-07-24T21:22:32;94563.63;;;20.92;100.00
9235;BME280;4652;42.716;23.218;2023-07-24T21:29:14;94543.81;;;20.80;100.00
9235;BME280;4652;42.716;23.218;2023-07-24T21:36:00;94543.03;;;20.60;100.00
9235;BME280;4652;42.716;23.218;2023-07-24T21:57:00;94565.03;;;19.82;100.00
9235;BME280;4652;42.716;23.218;2023-07-24T22:03:42;94553.75;;;19.68;100.00
9235;BME280;4652;42.716;23.218;2023-07-24T22:10:24;94567.88;;;19.85;100.00
9235;BME280;4652;42.716;23.218;2023-07-24T22:17:07;94559.56;;;19.82;100.00
9235;BME280;4652;42.716;23.218;2023-07-24T22:23:49;94565.13;;;19.85;100.00
9235;BME280;4652;42.716;23.218;2023-07-24T22:30:31;94562.91;;;19.91;100.00
9235;BME280;4652;42.716;23.218;2023-07-24T22:37:14;94580.63;;;19.81;100.00
9235;BME280;4652;42.716;23.218;2023-07-24T22:43:56;94574.19;;;19.74;100.00
9235;BME280;4652;42.716;23.218;2023-07-24T22:50:38;94566.50;;;19.64;100.00
9235;BME280;4652;42.716;23.218;2023-07-24T22:57:21;94562.00;;;19.56;100.00
9235;BME280;4652;42.716;23.218;2023-07-24T23:04:03;94557.25;;;19.53;100.00
9235;BME280;4652;42.716;23.218;2023-07-24T23:10:47;94557.59;;;19.35;100.00
